sensor_id;sensor_type;location;lat;lon;timestamp;P1;durP1;ratioP1;P2;durP2;ratioP2
39486;SDS011;25173;50.430;18.926;2023-06-19T00:00:55;14.48;;;10.05;;
39486;SDS011;25173;50.430;18.926;2023-06-19T00:03:56;10.90;;;8.98;;
39486;SDS011;25173;50.430;18.926;2023-06-19T00:06:57;12.30;;;9.60;;
39486;SDS011;25173;50.430;18.926;2023-06-19T00:09:59;12.00;;;9.52;;
39486;SDS011;25173;50.430;18.926;2023-06-19T00:13:02;16.70;;;9.88;;
39486;SDS011;25173;50.430;18.926;2023-06-19T00:16:03;13.15;;;10.18;;
39486;SDS011;25173;50.430;18.926;2023-06-19T00:19:04;16.65;;;10.05;;
39486;SDS011;25173;50.430;18.926;2023-06-19T00:22:05;11.75;;;9.40;;
39486;SDS011;25173;50.430;18.926;2023-06-19T00:25:06;13.43;;;9.95;;
39486;SDS011;25173;50.430;18.926;2023-06-19T00:28:07;14.27;;;9.65;;
39486;SDS011;25173;50.430;18.926;2023-06-19T00:31:11;15.82;;;10.82;;
39486;SDS011;25173;50.430;18.926;2023-06-19T00:34:15;13.02;;;10.32;;
39486;SDS011;25173;50.430;18.926;2023-06-19T00:37:15;14.27;;;10.15;;
39486;SDS011;25173;50.430;18.926;2023-06-19T00:40:37;12.55;;;10.13;;
39486;SDS011;25173;50.430;18.926;2023-06-19T00:43:37;15.90;;;10.52;;
39486;SDS011;25173;50.430;18.926;2023-06-19T00:46:39;14.18;;;10.15;;
39486;SDS011;25173;50.430;18.926;2023-06-19T00:49:43;13.85;;;10.10;;
39486;SDS011;25173;50.430;18.926;2023-06-19T00:52:43;12.63;;;9.23;;
39486;SDS011;25173;50.430;18.926;2023-06-19T00:55:45;10.48;;;9.38;;
39486;SDS011;25173;50.430;18.926;2023-06-19T00:58:47;12.32;;;10.68;;
39486;SDS011;25173;50.430;18.926;2023-06-19T01:01:48;13.50;;;9.52;;
39486;SDS011;25173;50.430;18.926;2023-06-19T01:04:49;14.15;;;10.20;;
39486;SDS011;25173;50.430;18.926;2023-06-19T01:11:11;20.15;;;11.82;;
39486;SDS011;25173;50.430;18.926;2023-06-19T01:14:18;18.02;;;11.18;;
39486;SDS011;25173;50.430;18.926;2023-06-19T01:17:26;17.25;;;11.85;;
39486;SDS011;25173;50.430;18.926;2023-06-19T01:20:28;16.27;;;11.57;;
39486;SDS011;25173;50.430;18.926;2023-06-19T01:23:29;16.48;;;11.40;;
39486;SDS011;25173;50.430;18.926;2023-06-19T01:26:29;11.95;;;10.23;;
39486;SDS011;25173;50.430;18.926;2023-06-19T01:29:31;15.52;;;11.35;;
39486;SDS011;25173;50.430;18.926;2023-06-19T01:35:55;19.70;;;11.65;;
39486;SDS011;25173;50.430;18.926;2023-06-19T01:39:00;14.98;;;11.15;;
39486;SDS011;25173;50.430;18.926;2023-06-19T01:42:02;17.80;;;11.23;;
39486;SDS011;25173;50.430;18.926;2023-06-19T01:45:04;14.23;;;10.43;;
39486;SDS011;25173;50.430;18.926;2023-06-19T01:48:07;16.13;;;11.05;;
39486;SDS011;25173;50.430;18.926;2023-06-19T01:51:08;29.70;;;11.23;;
39486;SDS011;25173;50.430;18.926;2023-06-19T01:54:13;13.60;;;10.45;;
39486;SDS011;25173;50.430;18.926;2023-06-19T01:57:13;12.55;;;10.18;;
39486;SDS011;25173;50.430;18.926;2023-06-19T02:00:14;17.48;;;11.45;;
39486;SDS011;25173;50.430;18.926;2023-06-19T02:03:16;12.82;;;10.15;;
39486;SDS011;25173;50.430;18.926;2023-06-19T02:06:16;12.07;;;10.55;;
39486;SDS011;25173;50.430;18.926;2023-06-19T02:09:17;13.20;;;10.45;;
39486;SDS011;25173;50.430;18.926;2023-06-19T02:12:17;12.73;;;9.90;;
39486;SDS011;25173;50.430;18.926;2023-06-19T02:15:18;14.88;;;10.40;;
39486;SDS011;25173;50.430;18.926;2023-06-19T02:18:19;14.23;;;8.80;;
39486;SDS011;25173;50.430;18.926;2023-06-19T02:21:19;14.90;;;9.80;;
39486;SDS011;25173;50.430;18.926;2023-06-19T02:24:20;12.65;;;9.63;;
39486;SDS011;25173;50.430;18.926;2023-06-19T02:27:20;15.70;;;10.18;;
39486;SDS011;25173;50.430;18.926;2023-06-19T02:30:21;15.13;;;10.45;;
39486;SDS011;25173;50.430;18.926;2023-06-19T02:33:22;16.02;;;9.80;;
39486;SDS011;25173;50.430;18.926;2023-06-19T02:36:22;13.40;;;9.88;;
39486;SDS011;25173;50.430;18.926;2023-06-19T02:39:23;13.25;;;10.30;;
39486;SDS011;25173;50.430;18.926;2023-06-19T02:42:24;14.77;;;9.45;;
39486;SDS011;25173;50.430;18.926;2023-06-19T02:45:24;12.95;;;9.25;;
39486;SDS011;25173;50.430;18.926;2023-06-19T02:48:25;13.15;;;9.18;;
39486;SDS011;25173;50.430;18.926;2023-06-19T02:51:25;15.23;;;10.30;;
39486;SDS011;25173;50.430;18.926;2023-06-19T02:54:26;16.08;;;10.18;;
39486;SDS011;25173;50.430;18.926;2023-06-19T02:57:26;14.95;;;10.73;;
39486;SDS011;25173;50.430;18.926;2023-06-19T03:00:27;16.60;;;10.27;;
39486;SDS011;25173;50.430;18.926;2023-06-19T03:03:28;15.57;;;10.55;;
39486;SDS011;25173;50.430;18.926;2023-06-19T03:06:31;11.43;;;9.38;;
39486;SDS011;25173;50.430;18.926;2023-06-19T03:09:33;17.15;;;9.80;;
39486;SDS011;25173;50.430;18.926;2023-06-19T03:12:34;12.75;;;9.50;;
39486;SDS011;25173;50.430;18.926;2023-06-19T03:15:34;14.60;;;10.23;;
39486;SDS011;25173;50.430;18.926;2023-06-19T03:18:35;13.00;;;10.25;;
39486;SDS011;25173;50.430;18.926;2023-06-19T03:21:36;15.00;;;10.15;;
39486;SDS011;25173;50.430;18.926;2023-06-19T03:24:36;18.95;;;9.20;;
39486;SDS011;25173;50.430;18.926;2023-06-19T03:27:50;13.88;;;9.85;;
39486;SDS011;25173;50.430;18.926;2023-06-19T03:30:51;14.02;;;10.40;;
39486;SDS011;25173;50.430;18.926;2023-06-19T03:33:56;20.40;;;12.30;;
39486;SDS011;25173;50.430;18.926;2023-06-19T03:36:58;19.17;;;10.95;;
39486;SDS011;25173;50.430;18.926;2023-06-19T03:39:59;16.88;;;9.50;;
39486;SDS011;25173;50.430;18.926;2023-06-19T03:43:02;15.55;;;9.60;;
39486;SDS011;25173;50.430;18.926;2023-06-19T03:46:03;14.57;;;10.27;;
39486;SDS011;25173;50.430;18.926;2023-06-19T03:49:04;14.07;;;9.63;;
39486;SDS011;25173;50.430;18.926;2023-06-19T03:52:06;15.25;;;10.65;;
39486;SDS011;25173;50.430;18.926;2023-06-19T03:55:08;15.55;;;10.15;;
39486;SDS011;25173;50.430;18.926;2023-06-19T03:58:09;12.10;;;10.10;;
39486;SDS011;25173;50.430;18.926;2023-06-19T04:01:09;12.10;;;10.77;;
39486;SDS011;25173;50.430;18.926;2023-06-19T04:04:10;14.90;;;11.68;;
39486;SDS011;25173;50.430;18.926;2023-06-19T04:07:11;14.27;;;10.93;;
39486;SDS011;25173;50.430;18.926;2023-06-19T04:10:15;16.77;;;12.32;;
39486;SDS011;25173;50.430;18.926;2023-06-19T04:13:15;16.08;;;11.85;;
39486;SDS011;25173;50.430;18.926;2023-06-19T04:16:16;18.23;;;12.68;;
39486;SDS011;25173;50.430;18.926;2023-06-19T04:19:17;17.67;;;13.10;;
39486;SDS011;25173;50.430;18.926;2023-06-19T04:22:18;17.60;;;12.82;;
39486;SDS011;25173;50.430;18.926;2023-06-19T04:25:19;17.02;;;13.00;;
39486;SDS011;25173;50.430;18.926;2023-06-19T04:28:19;21.02;;;14.77;;
39486;SDS011;25173;50.430;18.926;2023-06-19T04:31:20;17.83;;;14.65;;
39486;SDS011;25173;50.430;18.926;2023-06-19T04:34:21;21.35;;;16.48;;
39486;SDS011;25173;50.430;18.926;2023-06-19T04:37:22;21.85;;;16.30;;
39486;SDS011;25173;50.430;18.926;2023-06-19T04:40:22;23.90;;;17.48;;
39486;SDS011;25173;50.430;18.926;2023-06-19T04:43:25;23.60;;;17.42;;
39486;SDS011;25173;50.430;18.926;2023-06-19T04:46:26;25.88;;;18.02;;
39486;SDS011;25173;50.430;18.926;2023-06-19T04:49:29;25.60;;;18.48;;
39486;SDS011;25173;50.430;18.926;2023-06-19T04:52:30;26.30;;;17.80;;
39486;SDS011;25173;50.430;18.926;2023-06-19T04:55:33;26.00;;;17.02;;
39486;SDS011;25173;50.430;18.926;2023-06-19T04:58:33;27.85;;;17.77;;
39486;SDS011;25173;50.430;18.926;2023-06-19T05:01:34;22.73;;;16.92;;
39486;SDS011;25173;50.430;18.926;2023-06-19T05:04:35;23.70;;;18.48;;
39486;SDS011;25173;50.430;18.926;2023-06-19T05:07:36;20.83;;;17.60;;
39486;SDS011;25173;50.430;18.926;2023-06-19T05:10:36;21.92;;;18.25;;
39486;SDS011;25173;50.430;18.926;2023-06-19T05:13:37;33.08;;;18.42;;
39486;SDS011;25173;50.430;18.926;2023-06-19T05:16:37;25.88;;;19.92;;
39486;SDS011;25173;50.430;18.926;2023-06-19T05:19:39;31.85;;;20.08;;
39486;SDS011;25173;50.430;18.926;2023-06-19T05:22:39;22.40;;;18.95;;
39486;SDS011;25173;50.430;18.926;2023-06-19T05:25:40;26.95;;;19.98;;
39486;SDS011;25173;50.430;18.926;2023-06-19T05:28:40;25.38;;;19.98;;
39486;SDS011;25173;50.430;18.926;2023-06-19T05:31:41;22.77;;;19.63;;
39486;SDS011;25173;50.430;18.926;2023-06-19T05:34:41;21.35;;;18.13;;
39486;SDS011;25173;50.430;18.926;2023-06-19T05:37:42;20.90;;;17.83;;
39486;SDS011;25173;50.430;18.926;2023-06-19T05:40:43;24.77;;;17.77;;
39486;SDS011;25173;50.430;18.926;2023-06-19T05:43:44;24.50;;;16.92;;
39486;SDS011;25173;50.430;18.926;2023-06-19T05:46:45;22.38;;;17.67;;
39486;SDS011;25173;50.430;18.926;2023-06-19T05:49:45;26.35;;;18.63;;
39486;SDS011;25173;50.430;18.926;2023-06-19T05:52:47;26.10;;;17.88;;
39486;SDS011;25173;50.430;18.926;2023-06-19T05:55:47;22.75;;;17.95;;
39486;SDS011;25173;50.430;18.926;2023-06-19T05:58:48;21.75;;;16.48;;
39486;SDS011;25173;50.430;18.926;2023-06-19T06:01:49;23.83;;;18.48;;
39486;SDS011;25173;50.430;18.926;2023-06-19T06:04:50;23.48;;;16.63;;
39486;SDS011;25173;50.430;18.926;2023-06-19T06:07:51;18.67;;;13.73;;
39486;SDS011;25173;50.430;18.926;2023-06-19T06:10:52;17.58;;;13.43;;
39486;SDS011;25173;50.430;18.926;2023-06-19T06:13:52;22.75;;;13.38;;
39486;SDS011;25173;50.430;18.926;2023-06-19T06:16:53;13.18;;;11.32;;
39486;SDS011;25173;50.430;18.926;2023-06-19T06:19:53;20.20;;;11.65;;
39486;SDS011;25173;50.430;18.926;2023-06-19T06:22:54;13.77;;;10.60;;
39486;SDS011;25173;50.430;18.926;2023-06-19T06:25:54;16.27;;;10.23;;
39486;SDS011;25173;50.430;18.926;2023-06-19T06:29:01;14.82;;;9.07;;
39486;SDS011;25173;50.430;18.926;2023-06-19T06:32:05;19.77;;;10.55;;
39486;SDS011;25173;50.430;18.926;2023-06-19T06:35:07;17.40;;;10.50;;
39486;SDS011;25173;50.430;18.926;2023-06-19T06:38:08;20.42;;;11.45;;
39486;SDS011;25173;50.430;18.926;2023-06-19T06:41:08;23.05;;;10.57;;
39486;SDS011;25173;50.430;18.926;2023-06-19T06:44:09;18.38;;;11.32;;
39486;SDS011;25173;50.430;18.926;2023-06-19T06:47:11;20.20;;;10.63;;
39486;SDS011;25173;50.430;18.926;2023-06-19T06:50:11;20.33;;;11.50;;
39486;SDS011;25173;50.430;18.926;2023-06-19T06:53:12;17.55;;;11.73;;
39486;SDS011;25173;50.430;18.926;2023-06-19T06:56:12;17.02;;;11.57;;
39486;SDS011;25173;50.430;18.926;2023-06-19T06:59:13;12.65;;;10.00;;
39486;SDS011;25173;50.430;18.926;2023-06-19T07:02:15;18.23;;;9.77;;
39486;SDS011;25173;50.430;18.926;2023-06-19T07:05:17;17.75;;;10.05;;
39486;SDS011;25173;50.430;18.926;2023-06-19T07:08:18;17.83;;;9.95;;
39486;SDS011;25173;50.430;18.926;2023-06-19T07:11:18;20.98;;;11.27;;
39486;SDS011;25173;50.430;18.926;2023-06-19T07:14:19;12.32;;;9.38;;
39486;SDS011;25173;50.430;18.926;2023-06-19T07:17:19;14.93;;;9.38;;
39486;SDS011;25173;50.430;18.926;2023-06-19T07:20:20;17.35;;;9.35;;
39486;SDS011;25173;50.430;18.926;2023-06-19T07:23:20;12.90;;;8.20;;
39486;SDS011;25173;50.430;18.926;2023-06-19T07:26:21;15.65;;;8.90;;
39486;SDS011;25173;50.430;18.926;2023-06-19T07:29:22;9.35;;;7.20;;
39486;SDS011;25173;50.430;18.926;2023-06-19T07:32:22;9.13;;;7.07;;
39486;SDS011;25173;50.430;18.926;2023-06-19T07:35:23;8.95;;;6.47;;
39486;SDS011;25173;50.430;18.926;2023-06-19T07:38:24;12.80;;;6.13;;
39486;SDS011;25173;50.430;18.926;2023-06-19T07:41:25;7.50;;;5.70;;
39486;SDS011;25173;50.430;18.926;2023-06-19T07:44:25;7.15;;;5.60;;
39486;SDS011;25173;50.430;18.926;2023-06-19T07:47:26;5.30;;;4.80;;
39486;SDS011;25173;50.430;18.926;2023-06-19T07:50:27;6.30;;;5.50;;
39486;SDS011;25173;50.430;18.926;2023-06-19T07:53:27;7.88;;;5.00;;
39486;SDS011;25173;50.430;18.926;2023-06-19T07:56:28;5.50;;;4.90;;
39486;SDS011;25173;50.430;18.926;2023-06-19T07:59:28;7.25;;;5.70;;
39486;SDS011;25173;50.430;18.926;2023-06-19T08:02:29;7.85;;;6.00;;
39486;SDS011;25173;50.430;18.926;2023-06-19T08:05:29;7.13;;;5.40;;
39486;SDS011;25173;50.430;18.926;2023-06-19T08:08:30;7.13;;;6.05;;
39486;SDS011;25173;50.430;18.926;2023-06-19T08:11:31;12.00;;;5.75;;
39486;SDS011;25173;50.430;18.926;2023-06-19T08:14:31;6.60;;;5.25;;
39486;SDS011;25173;50.430;18.926;2023-06-19T08:17:32;6.25;;;4.88;;
39486;SDS011;25173;50.430;18.926;2023-06-19T08:20:32;6.88;;;4.82;;
39486;SDS011;25173;50.430;18.926;2023-06-19T08:23:33;5.13;;;4.25;;
39486;SDS011;25173;50.430;18.926;2023-06-19T08:26:33;5.68;;;4.53;;
39486;SDS011;25173;50.430;18.926;2023-06-19T08:29:34;5.22;;;4.68;;
39486;SDS011;25173;50.430;18.926;2023-06-19T08:32:34;4.65;;;4.15;;
39486;SDS011;25173;50.430;18.926;2023-06-19T08:35:35;6.65;;;4.43;;
39486;SDS011;25173;50.430;18.926;2023-06-19T08:38:35;5.68;;;4.30;;
39486;SDS011;25173;50.430;18.926;2023-06-19T08:41:36;4.65;;;3.67;;
39486;SDS011;25173;50.430;18.926;2023-06-19T08:44:38;4.95;;;4.00;;
39486;SDS011;25173;50.430;18.926;2023-06-19T08:47:38;6.65;;;3.90;;
39486;SDS011;25173;50.430;18.926;2023-06-19T08:50:39;4.95;;;4.55;;
39486;SDS011;25173;50.430;18.926;2023-06-19T08:53:47;4.80;;;4.30;;
39486;SDS011;25173;50.430;18.926;2023-06-19T08:56:51;4.88;;;4.32;;
39486;SDS011;25173;50.430;18.926;2023-06-19T08:59:53;4.60;;;4.18;;
39486;SDS011;25173;50.430;18.926;2023-06-19T09:03:01;6.75;;;4.53;;
39486;SDS011;25173;50.430;18.926;2023-06-19T09:06:03;4.85;;;4.45;;
39486;SDS011;25173;50.430;18.926;2023-06-19T09:09:05;5.22;;;4.35;;
39486;SDS011;25173;50.430;18.926;2023-06-19T09:15:14;4.25;;;3.55;;
39486;SDS011;25173;50.430;18.926;2023-06-19T09:18:15;5.65;;;4.30;;
39486;SDS011;25173;50.430;18.926;2023-06-19T09:21:19;4.75;;;4.35;;
39486;SDS011;25173;50.430;18.926;2023-06-19T09:24:22;5.28;;;4.53;;
39486;SDS011;25173;50.430;18.926;2023-06-19T09:27:24;5.72;;;4.22;;
39486;SDS011;25173;50.430;18.926;2023-06-19T09:30:25;4.90;;;4.43;;
39486;SDS011;25173;50.430;18.926;2023-06-19T09:33:26;6.55;;;4.43;;
39486;SDS011;25173;50.430;18.926;2023-06-19T09:36:28;4.25;;;3.85;;
39486;SDS011;25173;50.430;18.926;2023-06-19T09:39:31;4.40;;;4.00;;
39486;SDS011;25173;50.430;18.926;2023-06-19T09:42:33;8.55;;;3.80;;
39486;SDS011;25173;50.430;18.926;2023-06-19T09:45:35;4.32;;;3.92;;
39486;SDS011;25173;50.430;18.926;2023-06-19T09:48:41;9.43;;;3.90;;
39486;SDS011;25173;50.430;18.926;2023-06-19T09:51:42;4.38;;;3.53;;
39486;SDS011;25173;50.430;18.926;2023-06-19T09:54:43;4.43;;;4.03;;
39486;SDS011;25173;50.430;18.926;2023-06-19T09:57:44;6.18;;;4.32;;
39486;SDS011;25173;50.430;18.926;2023-06-19T10:00:46;7.35;;;4.57;;
39486;SDS011;25173;50.430;18.926;2023-06-19T10:03:47;4.88;;;4.40;;
39486;SDS011;25173;50.430;18.926;2023-06-19T10:06:48;4.75;;;4.07;;
39486;SDS011;25173;50.430;18.926;2023-06-19T10:13:11;4.35;;;3.95;;
39486;SDS011;25173;50.430;18.926;2023-06-19T10:16:20;15.00;;;4.68;;
39486;SDS011;25173;50.430;18.926;2023-06-19T10:19:21;5.88;;;4.13;;
39486;SDS011;25173;50.430;18.926;2023-06-19T10:22:22;6.43;;;4.15;;
39486;SDS011;25173;50.430;18.926;2023-06-19T10:25:23;6.95;;;3.80;;
39486;SDS011;25173;50.430;18.926;2023-06-19T10:31:34;6.22;;;4.25;;
39486;SDS011;25173;50.430;18.926;2023-06-19T10:34:35;5.95;;;4.45;;
39486;SDS011;25173;50.430;18.926;2023-06-19T10:37:36;4.97;;;3.97;;
39486;SDS011;25173;50.430;18.926;2023-06-19T10:40:37;4.82;;;4.35;;
39486;SDS011;25173;50.430;18.926;2023-06-19T10:43:37;5.95;;;4.60;;
39486;SDS011;25173;50.430;18.926;2023-06-19T10:46:38;7.10;;;4.63;;
39486;SDS011;25173;50.430;18.926;2023-06-19T10:49:41;8.88;;;4.10;;
39486;SDS011;25173;50.430;18.926;2023-06-19T10:52:45;4.63;;;4.22;;
39486;SDS011;25173;50.430;18.926;2023-06-19T10:55:46;4.47;;;3.90;;
39486;SDS011;25173;50.430;18.926;2023-06-19T10:58:46;5.80;;;4.20;;
39486;SDS011;25173;50.430;18.926;2023-06-19T11:01:47;4.65;;;4.25;;
39486;SDS011;25173;50.430;18.926;2023-06-19T11:04:54;3.80;;;3.45;;
39486;SDS011;25173;50.430;18.926;2023-06-19T11:07:56;4.35;;;3.95;;
39486;SDS011;25173;50.430;18.926;2023-06-19T11:10:58;6.10;;;4.38;;
39486;SDS011;25173;50.430;18.926;2023-06-19T11:13:58;7.05;;;4.28;;
39486;SDS011;25173;50.430;18.926;2023-06-19T11:16:59;4.50;;;4.10;;
39486;SDS011;25173;50.430;18.926;2023-06-19T11:19:59;9.73;;;3.78;;
39486;SDS011;25173;50.430;18.926;2023-06-19T11:23:00;4.97;;;3.67;;
39486;SDS011;25173;50.430;18.926;2023-06-19T11:26:02;4.80;;;4.10;;
39486;SDS011;25173;50.430;18.926;2023-06-19T11:29:13;4.30;;;3.90;;
39486;SDS011;25173;50.430;18.926;2023-06-19T11:32:19;3.95;;;3.60;;
39486;SDS011;25173;50.430;18.926;2023-06-19T11:35:25;4.03;;;3.63;;
39486;SDS011;25173;50.430;18.926;2023-06-19T11:38:35;4.43;;;4.05;;
39486;SDS011;25173;50.430;18.926;2023-06-19T11:41:37;4.45;;;4.05;;
39486;SDS011;25173;50.430;18.926;2023-06-19T11:44:56;4.35;;;3.95;;
39486;SDS011;25173;50.430;18.926;2023-06-19T11:48:04;4.13;;;3.78;;
39486;SDS011;25173;50.430;18.926;2023-06-19T11:51:06;4.72;;;4.10;;
39486;SDS011;25173;50.430;18.926;2023-06-19T11:54:09;4.40;;;3.95;;
39486;SDS011;25173;50.430;18.926;2023-06-19T11:57:11;3.88;;;3.53;;
39486;SDS011;25173;50.430;18.926;2023-06-19T12:00:16;5.75;;;4.18;;
39486;SDS011;25173;50.430;18.926;2023-06-19T12:03:17;4.22;;;3.83;;
39486;SDS011;25173;50.430;18.926;2023-06-19T12:06:18;4.63;;;4.22;;
39486;SDS011;25173;50.430;18.926;2023-06-19T12:09:18;4.72;;;3.75;;
39486;SDS011;25173;50.430;18.926;2023-06-19T12:12:19;4.00;;;3.70;;
39486;SDS011;25173;50.430;18.926;2023-06-19T12:15:19;3.45;;;3.15;;
39486;SDS011;25173;50.430;18.926;2023-06-19T12:18:20;6.65;;;4.13;;
39486;SDS011;25173;50.430;18.926;2023-06-19T12:21:20;3.13;;;2.92;;
39486;SDS011;25173;50.430;18.926;2023-06-19T12:24:21;4.40;;;4.00;;
39486;SDS011;25173;50.430;18.926;2023-06-19T12:27:21;4.45;;;4.00;;
39486;SDS011;25173;50.430;18.926;2023-06-19T12:30:22;9.35;;;4.50;;
39486;SDS011;25173;50.430;18.926;2023-06-19T12:33:23;3.97;;;3.67;;
39486;SDS011;25173;50.430;18.926;2023-06-19T12:36:24;4.60;;;4.20;;
39486;SDS011;25173;50.430;18.926;2023-06-19T12:39:25;6.13;;;4.28;;
39486;SDS011;25173;50.430;18.926;2023-06-19T12:42:26;3.85;;;3.53;;
39486;SDS011;25173;50.430;18.926;2023-06-19T12:45:27;4.78;;;4.20;;
39486;SDS011;25173;50.430;18.926;2023-06-19T12:48:28;4.72;;;4.22;;
39486;SDS011;25173;50.430;18.926;2023-06-19T12:51:28;3.65;;;3.20;;
39486;SDS011;25173;50.430;18.926;2023-06-19T12:54:29;6.13;;;4.18;;
39486;SDS011;25173;50.430;18.926;2023-06-19T12:57:30;4.15;;;3.80;;
39486;SDS011;25173;50.430;18.926;2023-06-19T13:00:30;3.88;;;3.58;;
39486;SDS011;25173;50.430;18.926;2023-06-19T13:03:31;4.50;;;4.10;;
39486;SDS011;25173;50.430;18.926;2023-06-19T13:06:32;3.80;;;3.47;;
39486;SDS011;25173;50.430;18.926;2023-06-19T13:09:32;5.88;;;4.10;;
39486;SDS011;25173;50.430;18.926;2023-06-19T13:12:33;5.65;;;3.58;;
39486;SDS011;25173;50.430;18.926;2023-06-19T13:15:34;3.88;;;3.50;;
39486;SDS011;25173;50.430;18.926;2023-06-19T13:18:34;3.60;;;3.30;;
39486;SDS011;25173;50.430;18.926;2023-06-19T13:21:35;4.20;;;3.80;;
39486;SDS011;25173;50.430;18.926;2023-06-19T13:24:36;4.25;;;3.85;;
39486;SDS011;25173;50.430;18.926;2023-06-19T13:27:36;4.38;;;3.97;;
39486;SDS011;25173;50.430;18.926;2023-06-19T13:30:37;4.20;;;3.80;;
39486;SDS011;25173;50.430;18.926;2023-06-19T13:33:38;7.38;;;4.13;;
39486;SDS011;25173;50.430;18.926;2023-06-19T13:36:39;3.95;;;3.60;;
39486;SDS011;25173;50.430;18.926;2023-06-19T13:39:41;3.97;;;3.67;;
39486;SDS011;25173;50.430;18.926;2023-06-19T13:42:41;5.93;;;3.88;;
39486;SDS011;25173;50.430;18.926;2023-06-19T13:45:42;4.07;;;3.50;;
39486;SDS011;25173;50.430;18.926;2023-06-19T13:48:42;3.92;;;3.53;;
39486;SDS011;25173;50.430;18.926;2023-06-19T13:51:43;4.90;;;4.03;;
39486;SDS011;25173;50.430;18.926;2023-06-19T13:54:44;4.18;;;3.78;;
39486;SDS011;25173;50.430;18.926;2023-06-19T13:57:47;5.07;;;3.78;;
39486;SDS011;25173;50.430;18.926;2023-06-19T14:00:48;4.22;;;3.83;;
39486;SDS011;25173;50.430;18.926;2023-06-19T14:03:48;8.93;;;3.85;;
39486;SDS011;25173;50.430;18.926;2023-06-19T14:06:49;4.75;;;4.30;;
39486;SDS011;25173;50.430;18.926;2023-06-19T14:09:50;8.70;;;4.07;;
39486;SDS011;25173;50.430;18.926;2023-06-19T14:12:53;5.55;;;3.67;;
39486;SDS011;25173;50.430;18.926;2023-06-19T14:15:54;6.28;;;4.78;;
39486;SDS011;25173;50.430;18.926;2023-06-19T14:18:54;5.20;;;4.05;;
39486;SDS011;25173;50.430;18.926;2023-06-19T14:21:55;6.38;;;3.85;;
39486;SDS011;25173;50.430;18.926;2023-06-19T14:24:56;3.85;;;3.55;;
39486;SDS011;25173;50.430;18.926;2023-06-19T14:27:59;3.80;;;3.50;;
39486;SDS011;25173;50.430;18.926;2023-06-19T14:31:00;3.90;;;3.60;;
39486;SDS011;25173;50.430;18.926;2023-06-19T14:34:00;3.92;;;3.60;;
39486;SDS011;25173;50.430;18.926;2023-06-19T14:37:01;6.85;;;3.78;;
39486;SDS011;25173;50.430;18.926;2023-06-19T14:40:02;4.20;;;3.80;;
39486;SDS011;25173;50.430;18.926;2023-06-19T14:43:03;3.88;;;3.58;;
39486;SDS011;25173;50.430;18.926;2023-06-19T14:46:03;6.25;;;3.70;;
39486;SDS011;25173;50.430;18.926;2023-06-19T14:49:05;4.78;;;3.75;;
39486;SDS011;25173;50.430;18.926;2023-06-19T14:52:06;5.30;;;3.90;;
39486;SDS011;25173;50.430;18.926;2023-06-19T14:55:07;3.33;;;3.03;;
39486;SDS011;25173;50.430;18.926;2023-06-19T14:58:08;3.83;;;3.53;;
39486;SDS011;25173;50.430;18.926;2023-06-19T15:01:09;4.68;;;3.30;;
39486;SDS011;25173;50.430;18.926;2023-06-19T15:04:10;19.10;;;3.92;;
39486;SDS011;25173;50.430;18.926;2023-06-19T15:07:10;4.05;;;3.42;;
39486;SDS011;25173;50.430;18.926;2023-06-19T15:10:11;4.90;;;4.15;;
39486;SDS011;25173;50.430;18.926;2023-06-19T15:13:12;4.80;;;4.15;;
39486;SDS011;25173;50.430;18.926;2023-06-19T15:16:12;7.10;;;3.72;;
39486;SDS011;25173;50.430;18.926;2023-06-19T15:19:13;6.60;;;4.68;;
39486;SDS011;25173;50.430;18.926;2023-06-19T15:22:14;5.75;;;4.10;;
39486;SDS011;25173;50.430;18.926;2023-06-19T15:25:14;5.95;;;3.97;;
39486;SDS011;25173;50.430;18.926;2023-06-19T15:28:15;6.65;;;3.63;;
39486;SDS011;25173;50.430;18.926;2023-06-19T15:31:15;3.80;;;3.50;;
39486;SDS011;25173;50.430;18.926;2023-06-19T15:34:16;5.72;;;3.47;;
39486;SDS011;25173;50.430;18.926;2023-06-19T15:37:17;4.97;;;3.85;;
39486;SDS011;25173;50.430;18.926;2023-06-19T15:40:18;4.32;;;3.92;;
39486;SDS011;25173;50.430;18.926;2023-06-19T15:43:18;4.22;;;3.92;;
39486;SDS011;25173;50.430;18.926;2023-06-19T15:46:19;4.90;;;3.67;;
39486;SDS011;25173;50.430;18.926;2023-06-19T15:49:19;3.85;;;3.45;;
39486;SDS011;25173;50.430;18.926;2023-06-19T15:52:20;10.32;;;4.07;;
39486;SDS011;25173;50.430;18.926;2023-06-19T15:55:21;5.45;;;3.95;;
39486;SDS011;25173;50.430;18.926;2023-06-19T15:58:22;4.32;;;4.03;;
39486;SDS011;25173;50.430;18.926;2023-06-19T16:01:23;4.88;;;3.72;;
39486;SDS011;25173;50.430;18.926;2023-06-19T16:04:23;6.00;;;3.83;;
39486;SDS011;25173;50.430;18.926;2023-06-19T16:07:24;5.95;;;3.60;;
39486;SDS011;25173;50.430;18.926;2023-06-19T16:10:25;4.63;;;3.50;;
39486;SDS011;25173;50.430;18.926;2023-06-19T16:13:26;4.63;;;3.42;;
39486;SDS011;25173;50.430;18.926;2023-06-19T16:16:26;5.03;;;3.80;;
39486;SDS011;25173;50.430;18.926;2023-06-19T16:19:27;4.00;;;3.70;;
39486;SDS011;25173;50.430;18.926;2023-06-19T16:22:27;5.55;;;3.85;;
39486;SDS011;25173;50.430;18.926;2023-06-19T16:25:28;3.75;;;3.45;;
39486;SDS011;25173;50.430;18.926;2023-06-19T16:28:28;4.03;;;3.63;;
39486;SDS011;25173;50.430;18.926;2023-06-19T16:31:29;4.47;;;3.65;;
39486;SDS011;25173;50.430;18.926;2023-06-19T16:34:30;6.78;;;3.58;;
39486;SDS011;25173;50.430;18.926;2023-06-19T16:37:30;5.22;;;3.80;;
39486;SDS011;25173;50.430;18.926;2023-06-19T16:40:31;6.47;;;5.38;;
39486;SDS011;25173;50.430;18.926;2023-06-19T16:43:32;5.50;;;4.60;;
39486;SDS011;25173;50.430;18.926;2023-06-19T16:46:33;4.68;;;3.40;;
39486;SDS011;25173;50.430;18.926;2023-06-19T16:49:34;6.72;;;4.75;;
39486;SDS011;25173;50.430;18.926;2023-06-19T16:52:34;4.80;;;4.30;;
39486;SDS011;25173;50.430;18.926;2023-06-19T16:55:35;6.90;;;4.43;;
39486;SDS011;25173;50.430;18.926;2023-06-19T16:58:36;8.57;;;4.38;;
39486;SDS011;25173;50.430;18.926;2023-06-19T17:01:36;3.67;;;3.35;;
39486;SDS011;25173;50.430;18.926;2023-06-19T17:04:37;7.00;;;3.72;;
39486;SDS011;25173;50.430;18.926;2023-06-19T17:07:38;8.73;;;3.45;;
39486;SDS011;25173;50.430;18.926;2023-06-19T17:10:39;3.83;;;3.50;;
39486;SDS011;25173;50.430;18.926;2023-06-19T17:13:40;4.00;;;3.60;;
39486;SDS011;25173;50.430;18.926;2023-06-19T17:16:41;5.45;;;3.80;;
39486;SDS011;25173;50.430;18.926;2023-06-19T17:19:42;5.95;;;3.33;;
39486;SDS011;25173;50.430;18.926;2023-06-19T17:22:43;4.30;;;2.83;;
39486;SDS011;25173;50.430;18.926;2023-06-19T17:25:44;7.13;;;3.80;;
39486;SDS011;25173;50.430;18.926;2023-06-19T17:28:45;8.40;;;4.25;;
39486;SDS011;25173;50.430;18.926;2023-06-19T17:31:46;5.07;;;3.20;;
39486;SDS011;25173;50.430;18.926;2023-06-19T17:34:46;3.97;;;3.53;;
39486;SDS011;25173;50.430;18.926;2023-06-19T17:37:47;4.53;;;3.65;;
39486;SDS011;25173;50.430;18.926;2023-06-19T17:40:48;4.32;;;3.85;;
39486;SDS011;25173;50.430;18.926;2023-06-19T17:43:48;7.40;;;4.38;;
39486;SDS011;25173;50.430;18.926;2023-06-19T17:46:51;9.40;;;4.93;;
39486;SDS011;25173;50.430;18.926;2023-06-19T17:49:52;6.00;;;4.53;;
39486;SDS011;25173;50.430;18.926;2023-06-19T17:52:53;7.22;;;4.68;;
39486;SDS011;25173;50.430;18.926;2023-06-19T17:55:53;4.90;;;4.18;;
39486;SDS011;25173;50.430;18.926;2023-06-19T17:58:54;8.07;;;4.97;;
39486;SDS011;25173;50.430;18.926;2023-06-19T18:01:54;6.25;;;3.67;;